createdAt,value
2016-08-21T21:37:01.430Z,1017.08
2016-08-21T21:37:11.599Z,1017.06
2016-08-21T21:37:21.389Z,1017.08
2016-08-21T21:37:31.385Z,1017.12
2016-08-21T21:37:41.381Z,1017.07
2016-08-21T21:37:52.103Z,1017.08
2016-08-21T21:38:01.372Z,1017.09
2016-08-21T21:38:11.369Z,1017.09
2016-08-21T21:38:21.364Z,1017.11
2016-08-21T21:38:31.358Z,1017.11
2016-08-21T21:38:41.353Z,1017.1
2016-08-21T21:38:51.351Z,1017.13
2016-08-21T21:39:01.341Z,1017.13
2016-08-21T21:39:11.339Z,1017.07
2016-08-21T21:39:21.333Z,1017.09
2016-08-21T21:39:31.327Z,1017.08
2016-08-21T21:39:41.323Z,1017.1
2016-08-21T21:39:51.319Z,1017.09
2016-08-21T21:40:01.314Z,1017.07
2016-08-21T21:40:11.532Z,1017.07
2016-08-21T21:40:21.302Z,1017.05
2016-08-21T21:40:31.325Z,1017.13
2016-08-21T21:40:41.296Z,1017.13
2016-08-21T21:40:51.291Z,1017.1
2016-08-21T21:41:01.288Z,1017.08
2016-08-21T21:41:11.282Z,1017.13
2016-08-21T21:41:21.277Z,1017.1
2016-08-21T21:41:31.280Z,1017.14
2016-08-21T21:41:41.269Z,1017.13
2016-08-21T21:41:51.266Z,1017.14
2016-08-21T21:42:01.257Z,1017.14
2016-08-21T21:42:11.251Z,1017.09
2016-08-21T21:42:21.249Z,1017.13
2016-08-21T21:42:31.243Z,1017.11
2016-08-21T21:42:41.238Z,1017.14
2016-08-21T21:42:51.233Z,1017.13
2016-08-21T21:43:01.228Z,1017.14
2016-08-21T21:43:11.223Z,1017.14
2016-08-21T21:43:21.219Z,1017.17
2016-08-21T21:43:31.214Z,1017.18
2016-08-21T21:43:41.432Z,1017.15
2016-08-21T21:43:51.219Z,1017.13
2016-08-21T21:44:01.200Z,1017.15
2016-08-21T21:44:11.194Z,1017.13
2016-08-21T21:44:21.192Z,1017.16
2016-08-21T21:44:31.187Z,1017.14
2016-08-21T21:44:41.181Z,1017.14
2016-08-21T21:44:51.272Z,1017.12
2016-08-21T21:45:01.174Z,1017.17
2016-08-21T21:45:11.167Z,1017.14
2016-08-21T21:45:21.384Z,1017.17
2016-08-21T21:45:31.157Z,1017.16
2016-08-21T21:45:41.154Z,1017.18
2016-08-21T21:45:51.147Z,1017.17
2016-08-21T21:46:01.146Z,1017.14
2016-08-21T21:46:11.138Z,1017.19
2016-08-21T21:46:21.135Z,1017.17
2016-08-21T21:46:31.127Z,1017.14
2016-08-21T21:46:41.125Z,1017.17
2016-08-21T21:46:51.117Z,1017.18
2016-08-21T21:47:01.114Z,1017.16
2016-08-21T21:47:12.041Z,1017.17
2016-08-21T21:47:21.838Z,1017.19
2016-08-21T21:47:31.322Z,1017.19
2016-08-21T21:47:41.094Z,1017.2
2016-08-21T21:47:51.097Z,1017.17
2016-08-21T21:48:01.286Z,1017.22
2016-08-21T21:48:11.081Z,1017.19
2016-08-21T21:48:21.077Z,1017.23
2016-08-21T21:48:31.074Z,1017.21
2016-08-21T21:48:41.069Z,1017.24
2016-08-21T21:48:51.062Z,1017.23
2016-08-21T21:49:01.055Z,1017.21
2016-08-21T21:49:11.059Z,1017.24
2016-08-21T21:49:21.048Z,1017.24
2016-08-21T21:49:31.044Z,1017.26
2016-08-21T21:49:41.045Z,1017.28
2016-08-21T21:49:51.034Z,1017.27
2016-08-21T21:50:01.030Z,1017.25
2016-08-21T21:50:11.035Z,1017.28
2016-08-21T21:50:21.021Z,1017.25
2016-08-21T21:50:31.015Z,1017.28
2016-08-21T21:50:41.010Z,1017.27
2016-08-21T21:50:51.004Z,1017.24
2016-08-21T21:51:00.997Z,1017.24
2016-08-21T21:51:10.995Z,1017.3
2016-08-21T21:51:20.992Z,1017.25
2016-08-21T21:51:30.985Z,1017.3
2016-08-21T21:51:40.981Z,1017.27
2016-08-21T21:51:50.978Z,1017.26
2016-08-21T21:52:00.973Z,1017.26
2016-08-21T21:52:10.988Z,1017.24
2016-08-21T21:52:20.967Z,1017.28
2016-08-21T21:52:30.958Z,1017.25
2016-08-21T21:52:40.954Z,1017.22
2016-08-21T21:52:50.946Z,1017.23
2016-08-21T21:53:00.944Z,1017.27
2016-08-21T21:53:10.953Z,1017.3
2016-08-21T21:53:20.935Z,1017.29
2016-08-21T21:53:30.934Z,1017.24
2016-08-21T21:53:40.931Z,1017.21
2016-08-21T21:53:50.919Z,1017.26
2016-08-21T21:54:00.912Z,1017.26
2016-08-21T21:54:10.909Z,1017.23
2016-08-21T21:54:20.904Z,1017.28
2016-08-21T21:54:30.900Z,1017.26
2016-08-21T21:54:40.895Z,1017.23
2016-08-21T21:54:50.990Z,1017.24
2016-08-21T21:55:00.885Z,1017.25
2016-08-21T21:55:10.880Z,1017.28
2016-08-21T21:55:20.876Z,1017.24
2016-08-21T21:55:30.872Z,1017.25
2016-08-21T21:55:40.867Z,1017.24
2016-08-21T21:55:50.862Z,1017.28
2016-08-21T21:56:00.859Z,1017.29
2016-08-21T21:56:10.862Z,1017.21
2016-08-21T21:56:20.858Z,1017.25
2016-08-21T21:56:30.843Z,1017.25
2016-08-21T21:56:40.839Z,1017.25
2016-08-21T21:56:50.835Z,1017.24
2016-08-21T21:57:00.826Z,1017.21
2016-08-21T21:57:10.824Z,1017.26
2016-08-21T21:57:20.822Z,1017.23
2016-08-21T21:57:30.816Z,1017.25
2016-08-21T21:57:40.863Z,1017.21
2016-08-21T21:57:50.817Z,1017.23
2016-08-21T21:58:00.803Z,1017.26
2016-08-21T21:58:10.796Z,1017.25
2016-08-21T21:58:20.790Z,1017.3
2016-08-21T21:58:30.789Z,1017.22
2016-08-21T21:58:40.781Z,1017.28
2016-08-21T21:58:50.777Z,1017.24
2016-08-21T21:59:00.779Z,1017.3
2016-08-21T21:59:10.770Z,1017.34
2016-08-21T21:59:20.765Z,1017.28
2016-08-21T21:59:30.758Z,1017.28
2016-08-21T21:59:40.752Z,1017.29
2016-08-21T21:59:50.750Z,1017.29
2016-08-21T22:00:00.743Z,1017.28
2016-08-21T22:00:10.741Z,1017.31
2016-08-21T22:00:20.730Z,1017.31
2016-08-21T22:00:31.460Z,1017.32
2016-08-21T22:00:40.723Z,1017.32
2016-08-21T22:00:50.721Z,1017.3
2016-08-21T22:01:00.715Z,1017.3
2016-08-21T22:01:10.711Z,1017.26
2016-08-21T22:01:20.716Z,1017.29
2016-08-21T22:01:30.699Z,1017.3
2016-08-21T22:01:40.694Z,1017.29
2016-08-21T22:01:50.689Z,1017.21
2016-08-21T22:02:00.701Z,1017.29
2016-08-21T22:02:10.681Z,1017.27
2016-08-21T22:02:20.677Z,1017.26
2016-08-21T22:02:30.688Z,1017.27
2016-08-21T22:02:40.665Z,1017.28
2016-08-21T22:02:50.664Z,1017.35
2016-08-21T22:03:00.660Z,1017.29
2016-08-21T22:03:10.653Z,1017.28
2016-08-21T22:03:20.650Z,1017.31
2016-08-21T22:03:30.648Z,1017.31
2016-08-21T22:03:40.637Z,1017.27
2016-08-21T22:03:50.636Z,1017.3
2016-08-21T22:04:00.629Z,1017.3
2016-08-21T22:04:10.625Z,1017.3
2016-08-21T22:04:20.619Z,1017.31
2016-08-21T22:04:30.615Z,1017.27
2016-08-21T22:04:40.619Z,1017.32
2016-08-21T22:04:50.606Z,1017.3
2016-08-21T22:05:00.600Z,1017.28
2016-08-21T22:05:10.594Z,1017.27
2016-08-21T22:05:20.590Z,1017.29
2016-08-21T22:05:30.591Z,1017.29
2016-08-21T22:05:40.579Z,1017.25
2016-08-21T22:05:50.575Z,1017.28
2016-08-21T22:06:00.572Z,1017.26
2016-08-21T22:06:10.568Z,1017.25
2016-08-21T22:06:20.562Z,1017.24
2016-08-21T22:06:30.559Z,1017.27
2016-08-21T22:06:40.554Z,1017.28
2016-08-21T22:06:51.281Z,1017.3
2016-08-21T22:07:00.542Z,1017.25
2016-08-21T22:07:10.539Z,1017.27
2016-08-21T22:07:20.535Z,1017.25
2016-08-21T22:07:30.525Z,1017.29
2016-08-21T22:07:40.524Z,1017.27
2016-08-21T22:07:50.520Z,1017.27
2016-08-21T22:08:00.514Z,1017.27
2016-08-21T22:08:10.509Z,1017.24
2016-08-21T22:08:20.505Z,1017.23
2016-08-21T22:08:30.499Z,1017.29
2016-08-21T22:08:40.493Z,1017.29
2016-08-21T22:08:50.490Z,1017.29
2016-08-21T22:09:00.484Z,1017.26
2016-08-21T22:09:10.481Z,1017.31
2016-08-21T22:09:20.476Z,1017.29
2016-08-21T22:09:30.476Z,1017.26
2016-08-21T22:09:41.199Z,1017.33
2016-08-21T22:09:50.461Z,1017.28
2016-08-21T22:10:00.462Z,1017.29
2016-08-21T22:10:10.457Z,1017.28
2016-08-21T22:10:20.447Z,1017.31
2016-08-21T22:10:30.449Z,1017.3
2016-08-21T22:10:40.439Z,1017.3
2016-08-21T22:10:50.435Z,1017.28
2016-08-21T22:11:00.437Z,1017.29
2016-08-21T22:11:10.426Z,1017.26
2016-08-21T22:11:20.420Z,1017.3
2016-08-21T22:11:30.413Z,1017.27
2016-08-21T22:11:41.137Z,1017.32
2016-08-21T22:11:50.405Z,1017.29
2016-08-21T22:12:01.130Z,1017.32
2016-08-21T22:12:10.401Z,1017.28
2016-08-21T22:12:20.389Z,1017.26
2016-08-21T22:12:30.385Z,1017.32
2016-08-21T22:12:40.382Z,1017.22
2016-08-21T22:12:50.376Z,1017.27
2016-08-21T22:13:00.371Z,1017.27
2016-08-21T22:13:10.367Z,1017.29
2016-08-21T22:13:20.363Z,1017.31
2016-08-21T22:13:30.358Z,1017.28
2016-08-21T22:13:40.372Z,1017.32
2016-08-21T22:13:50.350Z,1017.31
2016-08-21T22:14:00.346Z,1017.36
2016-08-21T22:14:11.066Z,1017.35
2016-08-21T22:14:20.336Z,1017.39
2016-08-21T22:14:30.331Z,1017.33
2016-08-21T22:14:40.324Z,1017.34
2016-08-21T22:14:50.319Z,1017.3
2016-08-21T22:15:00.316Z,1017.36
2016-08-21T22:15:10.309Z,1017.33
2016-08-21T22:15:20.305Z,1017.34
2016-08-21T22:15:30.299Z,1017.33
2016-08-21T22:15:40.296Z,1017.31
2016-08-21T22:15:50.291Z,1017.35
2016-08-21T22:16:00.286Z,1017.33
2016-08-21T22:16:10.282Z,1017.34
2016-08-21T22:16:20.284Z,1017.35
2016-08-21T22:16:30.269Z,1017.33
2016-08-21T22:16:40.265Z,1017.34
2016-08-21T22:16:50.268Z,1017.32
2016-08-21T22:17:00.258Z,1017.33
2016-08-21T22:17:10.254Z,1017.34
2016-08-21T22:17:20.249Z,1017.31
2016-08-21T22:17:30.243Z,1017.34
2016-08-21T22:17:40.237Z,1017.35
2016-08-21T22:17:50.236Z,1017.33
2016-08-21T22:18:00.230Z,1017.32
2016-08-21T22:18:10.224Z,1017.35
2016-08-21T22:18:20.218Z,1017.31
2016-08-21T22:18:30.215Z,1017.33
2016-08-21T22:18:40.209Z,1017.35
2016-08-21T22:18:50.202Z,1017.34
2016-08-21T22:19:00.200Z,1017.37
2016-08-21T22:19:10.195Z,1017.38
2016-08-21T22:19:20.188Z,1017.34
2016-08-21T22:19:30.184Z,1017.32
2016-08-21T22:19:40.179Z,1017.28
2016-08-21T22:19:50.175Z,1017.37
2016-08-21T22:20:00.170Z,1017.29
2016-08-21T22:20:10.175Z,1017.32
2016-08-21T22:20:20.162Z,1017.35
2016-08-21T22:20:30.166Z,1017.35
2016-08-21T22:20:40.153Z,1017.35
2016-08-21T22:20:50.147Z,1017.35
2016-08-21T22:21:00.145Z,1017.36
2016-08-21T22:21:10.139Z,1017.33
2016-08-21T22:21:20.869Z,1017.34
2016-08-21T22:21:30.131Z,1017.35
2016-08-21T22:21:40.121Z,1017.38
2016-08-21T22:21:50.119Z,1017.3
2016-08-21T22:22:00.116Z,1017.37
2016-08-21T22:22:10.115Z,1017.38
2016-08-21T22:22:20.106Z,1017.35
2016-08-21T22:22:30.102Z,1017.34
2016-08-21T22:22:40.094Z,1017.36
2016-08-21T22:22:50.089Z,1017.28
2016-08-21T22:23:00.085Z,1017.32
2016-08-21T22:23:10.811Z,1017.35
2016-08-21T22:23:20.076Z,1017.35
2016-08-21T22:23:30.072Z,1017.37
2016-08-21T22:23:40.067Z,1017.37
2016-08-21T22:23:50.062Z,1017.36
2016-08-21T22:24:00.058Z,1017.37
2016-08-21T22:24:10.053Z,1017.44
2016-08-21T22:24:20.048Z,1017.3
2016-08-21T22:24:30.043Z,1017.38
2016-08-21T22:24:40.039Z,1017.39
2016-08-21T22:24:50.033Z,1017.37
2016-08-21T22:25:00.031Z,1017.33
2016-08-21T22:25:10.025Z,1017.36
2016-08-21T22:25:20.019Z,1017.4
2016-08-21T22:25:30.015Z,1017.37
2016-08-21T22:25:40.007Z,1017.35
2016-08-21T22:25:50.002Z,1017.41
2016-08-21T22:25:59.999Z,1017.36
2016-08-21T22:26:09.994Z,1017.38
2016-08-21T22:26:19.989Z,1017.37
2016-08-21T22:26:29.984Z,1017.36
2016-08-21T22:26:39.988Z,1017.34
2016-08-21T22:26:49.975Z,1017.43
2016-08-21T22:26:59.971Z,1017.42
2016-08-21T22:27:09.966Z,1017.37
2016-08-21T22:27:19.962Z,1017.38
2016-08-21T22:27:29.956Z,1017.41
2016-08-21T22:27:39.953Z,1017.36
2016-08-21T22:27:49.949Z,1017.35
2016-08-21T22:27:59.943Z,1017.36
2016-08-21T22:28:09.940Z,1017.41
2016-08-21T22:28:19.934Z,1017.37
2016-08-21T22:28:29.929Z,1017.41
2016-08-21T22:28:39.921Z,1017.41
2016-08-21T22:28:49.922Z,1017.41
2016-08-21T22:28:59.913Z,1017.44
2016-08-21T22:29:09.910Z,1017.41
2016-08-21T22:29:19.903Z,1017.46
2016-08-21T22:29:29.908Z,1017.47
2016-08-21T22:29:39.892Z,1017.41
2016-08-21T22:29:49.889Z,1017.38
2016-08-21T22:29:59.884Z,1017.44
2016-08-21T22:30:09.879Z,1017.43
2016-08-21T22:30:19.874Z,1017.45
2016-08-21T22:30:29.870Z,1017.46
2016-08-21T22:30:39.865Z,1017.41
2016-08-21T22:30:49.862Z,1017.43
2016-08-21T22:30:59.855Z,1017.44
2016-08-21T22:31:09.852Z,1017.48
2016-08-21T22:31:19.848Z,1017.4
2016-08-21T22:31:29.842Z,1017.42
2016-08-21T22:31:39.837Z,1017.4
2016-08-21T22:31:49.833Z,1017.44
2016-08-21T22:31:59.829Z,1017.37
2016-08-21T22:32:09.825Z,1017.39
2016-08-21T22:32:19.829Z,1017.39
2016-08-21T22:32:29.813Z,1017.4
2016-08-21T22:32:39.815Z,1017.42
2016-08-21T22:32:49.814Z,1017.44
2016-08-21T22:32:59.801Z,1017.41
2016-08-21T22:33:09.794Z,1017.39
2016-08-21T22:33:19.790Z,1017.43
2016-08-21T22:33:29.782Z,1017.38
2016-08-21T22:33:39.778Z,1017.42
2016-08-21T22:33:49.775Z,1017.36
2016-08-21T22:33:59.771Z,1017.45
2016-08-21T22:34:09.766Z,1017.41
2016-08-21T22:34:19.775Z,1017.43
2016-08-21T22:34:29.762Z,1017.43
2016-08-21T22:34:39.758Z,1017.43
2016-08-21T22:34:49.751Z,1017.43
2016-08-21T22:34:59.741Z,1017.47
2016-08-21T22:35:09.739Z,1017.43
2016-08-21T22:35:19.734Z,1017.44
2016-08-21T22:35:29.728Z,1017.44
2016-08-21T22:35:39.727Z,1017.47
2016-08-21T22:35:49.719Z,1017.43
2016-08-21T22:35:59.715Z,1017.47
2016-08-21T22:36:09.709Z,1017.45
2016-08-21T22:36:19.703Z,1017.43
2016-08-21T22:36:29.699Z,1017.42
2016-08-21T22:36:39.693Z,1017.47
2016-08-21T22:36:49.691Z,1017.44
2016-08-21T22:36:59.685Z,1017.47
2016-08-21T22:37:09.681Z,1017.47
2016-08-21T22:37:19.674Z,1017.46
2016-08-21T22:37:29.671Z,1017.44
2016-08-21T22:37:39.663Z,1017.41
2016-08-21T22:37:49.661Z,1017.43
2016-08-21T22:37:59.655Z,1017.43
2016-08-21T22:38:09.650Z,1017.44
2016-08-21T22:38:19.648Z,1017.48
2016-08-21T22:38:29.643Z,1017.41
2016-08-21T22:38:39.638Z,1017.45
2016-08-21T22:38:49.631Z,1017.4
2016-08-21T22:38:59.628Z,1017.38
2016-08-21T22:39:09.625Z,1017.45
2016-08-21T22:39:19.619Z,1017.45
2016-08-21T22:39:29.613Z,1017.47
2016-08-21T22:39:39.608Z,1017.41
2016-08-21T22:39:49.604Z,1017.42
2016-08-21T22:39:59.599Z,1017.39
2016-08-21T22:40:09.595Z,1017.42
2016-08-21T22:40:19.589Z,1017.41
2016-08-21T22:40:29.585Z,1017.43
2016-08-21T22:40:39.580Z,1017.46
2016-08-21T22:40:49.582Z,1017.45
2016-08-21T22:40:59.577Z,1017.49
2016-08-21T22:41:09.565Z,1017.42
2016-08-21T22:41:19.558Z,1017.45
2016-08-21T22:41:29.568Z,1017.44
2016-08-21T22:41:39.550Z,1017.44
2016-08-21T22:41:49.546Z,1017.42
2016-08-21T22:41:59.543Z,1017.45
2016-08-21T22:42:09.538Z,1017.44
2016-08-21T22:42:19.543Z,1017.45
2016-08-21T22:42:29.528Z,1017.47
2016-08-21T22:42:39.522Z,1017.42
2016-08-21T22:42:49.518Z,1017.47
2016-08-21T22:42:59.512Z,1017.45
2016-08-21T22:43:09.513Z,1017.48
2016-08-21T22:43:19.503Z,1017.48
2016-08-21T22:43:29.500Z,1017.43
2016-08-21T22:43:39.492Z,1017.48
2016-08-21T22:43:49.489Z,1017.45
2016-08-21T22:43:59.485Z,1017.47
2016-08-21T22:44:09.478Z,1017.48
2016-08-21T22:44:19.473Z,1017.51
2016-08-21T22:44:29.469Z,1017.52
2016-08-21T22:44:39.470Z,1017.51
2016-08-21T22:44:49.460Z,1017.51
2016-08-21T22:44:59.455Z,1017.5
2016-08-21T22:45:09.457Z,1017.53
2016-08-21T22:45:19.447Z,1017.48
2016-08-21T22:45:29.444Z,1017.52
2016-08-21T22:45:39.436Z,1017.54
2016-08-21T22:45:49.433Z,1017.48
2016-08-21T22:45:59.428Z,1017.52
2016-08-21T22:46:10.152Z,1017.54
2016-08-21T22:46:19.419Z,1017.49
2016-08-21T22:46:29.415Z,1017.52
2016-08-21T22:46:39.408Z,1017.53
2016-08-21T22:46:49.403Z,1017.49
2016-08-21T22:46:59.399Z,1017.51
2016-08-21T22:47:09.393Z,1017.52
2016-08-21T22:47:19.390Z,1017.5
2016-08-21T22:47:29.383Z,1017.55
2016-08-21T22:47:39.384Z,1017.53
2016-08-21T22:47:49.379Z,1017.52
2016-08-21T22:47:59.370Z,1017.53
2016-08-21T22:48:09.367Z,1017.53
2016-08-21T22:48:19.359Z,1017.53
2016-08-21T22:48:29.362Z,1017.5
2016-08-21T22:48:39.352Z,1017.52
2016-08-21T22:48:49.347Z,1017.51
2016-08-21T22:48:59.343Z,1017.56
2016-08-21T22:49:09.337Z,1017.53
2016-08-21T22:49:19.333Z,1017.6
2016-08-21T22:49:29.329Z,1017.54
2016-08-21T22:49:39.322Z,1017.53
2016-08-21T22:49:49.320Z,1017.56
2016-08-21T22:49:59.313Z,1017.57
2016-08-21T22:50:09.309Z,1017.55
2016-08-21T22:50:19.304Z,1017.56
2016-08-21T22:50:29.298Z,1017.54
2016-08-21T22:50:39.291Z,1017.51
2016-08-21T22:50:49.290Z,1017.53
2016-08-21T22:50:59.284Z,1017.57
2016-08-21T22:51:09.280Z,1017.51
2016-08-21T22:51:19.273Z,1017.56
2016-08-21T22:51:29.269Z,1017.55
2016-08-21T22:51:39.262Z,1017.51
2016-08-21T22:51:49.259Z,1017.54
2016-08-21T22:51:59.254Z,1017.56
2016-08-21T22:52:09.250Z,1017.53
2016-08-21T22:52:19.246Z,1017.59
2016-08-21T22:52:29.241Z,1017.55
2016-08-21T22:52:39.237Z,1017.54
2016-08-21T22:52:49.239Z,1017.52
2016-08-21T22:52:59.227Z,1017.51
2016-08-21T22:53:09.220Z,1017.54
2016-08-21T22:53:19.217Z,1017.51
2016-08-21T22:53:29.213Z,1017.55
2016-08-21T22:53:39.207Z,1017.54
2016-08-21T22:53:49.202Z,1017.55
2016-08-21T22:53:59.200Z,1017.53
2016-08-21T22:54:09.934Z,1017.55
2016-08-21T22:54:19.188Z,1017.58
2016-08-21T22:54:29.184Z,1017.6
2016-08-21T22:54:39.177Z,1017.53
2016-08-21T22:54:49.173Z,1017.61
2016-08-21T22:54:59.169Z,1017.62
2016-08-21T22:55:09.163Z,1017.64
2016-08-21T22:55:19.158Z,1017.58
2016-08-21T22:55:29.158Z,1017.59
2016-08-21T22:55:39.151Z,1017.57
2016-08-21T22:55:49.145Z,1017.61
2016-08-21T22:55:59.142Z,1017.58
2016-08-21T22:56:09.138Z,1017.54
2016-08-21T22:56:19.130Z,1017.57
2016-08-21T22:56:29.128Z,1017.59
2016-08-21T22:56:39.122Z,1017.6
2016-08-21T22:56:49.116Z,1017.57
2016-08-21T22:56:59.114Z,1017.59
2016-08-21T22:57:09.111Z,1017.63
2016-08-21T22:57:19.102Z,1017.57
2016-08-21T22:57:29.098Z,1017.65
2016-08-21T22:57:39.091Z,1017.6
2016-08-21T22:57:49.087Z,1017.6
2016-08-21T22:57:59.084Z,1017.58
2016-08-21T22:58:09.078Z,1017.58
2016-08-21T22:58:19.073Z,1017.63
2016-08-21T22:58:29.068Z,1017.62
2016-08-21T22:58:39.065Z,1017.6
2016-08-21T22:58:49.058Z,1017.62
2016-08-21T22:58:59.053Z,1017.61
2016-08-21T22:59:09.050Z,1017.62
2016-08-21T22:59:19.043Z,1017.63
2016-08-21T22:59:29.040Z,1017.62
2016-08-21T22:59:39.036Z,1017.63
2016-08-21T22:59:49.031Z,1017.67
2016-08-21T22:59:59.025Z,1017.6
2016-08-21T23:00:09.020Z,1017.6
2016-08-21T23:00:19.018Z,1017.64
2016-08-21T23:00:29.011Z,1017.66
2016-08-21T23:00:39.006Z,1017.57
2016-08-21T23:00:49.014Z,1017.6
2016-08-21T23:00:58.999Z,1017.6
2016-08-21T23:01:08.992Z,1017.59
2016-08-21T23:01:18.988Z,1017.58
2016-08-21T23:01:28.984Z,1017.61
2016-08-21T23:01:38.977Z,1017.59
2016-08-21T23:01:48.970Z,1017.61
2016-08-21T23:01:58.970Z,1017.6
2016-08-21T23:02:08.965Z,1017.63
2016-08-21T23:02:19.688Z,1017.6
2016-08-21T23:02:28.954Z,1017.64
2016-08-21T23:02:38.953Z,1017.66
2016-08-21T23:02:48.943Z,1017.57
2016-08-21T23:02:58.940Z,1017.61
2016-08-21T23:03:08.934Z,1017.61
2016-08-21T23:03:18.929Z,1017.61
2016-08-21T23:03:28.928Z,1017.61
2016-08-21T23:03:38.924Z,1017.64
2016-08-21T23:03:48.916Z,1017.62
2016-08-21T23:03:58.911Z,1017.6
2016-08-21T23:04:08.906Z,1017.59
2016-08-21T23:04:18.900Z,1017.61
2016-08-21T23:04:28.896Z,1017.61
2016-08-21T23:04:38.892Z,1017.65
2016-08-21T23:04:48.885Z,1017.6
2016-08-21T23:04:58.883Z,1017.67
2016-08-21T23:05:08.878Z,1017.62
2016-08-21T23:05:18.872Z,1017.62
2016-08-21T23:05:28.867Z,1017.6
2016-08-21T23:05:38.861Z,1017.63
2016-08-21T23:05:48.858Z,1017.64
2016-08-21T23:05:58.852Z,1017.64
2016-08-21T23:06:08.847Z,1017.62
2016-08-21T23:06:18.845Z,1017.64
2016-08-21T23:06:28.841Z,1017.64
2016-08-21T23:06:38.835Z,1017.63
2016-08-21T23:06:48.831Z,1017.65
2016-08-21T23:06:58.825Z,1017.64
2016-08-21T23:07:08.822Z,1017.65
2016-08-21T23:07:18.816Z,1017.67
2016-08-21T23:07:28.812Z,1017.65
2016-08-21T23:07:38.804Z,1017.62
2016-08-21T23:07:48.800Z,1017.67
2016-08-21T23:07:58.794Z,1017.66
2016-08-21T23:08:08.791Z,1017.68
2016-08-21T23:08:19.515Z,1017.65
2016-08-21T23:08:28.787Z,1017.6
2016-08-21T23:08:38.776Z,1017.65
2016-08-21T23:08:48.771Z,1017.62
2016-08-21T23:08:58.769Z,1017.65
2016-08-21T23:09:08.761Z,1017.64
2016-08-21T23:09:18.759Z,1017.65
2016-08-21T23:09:28.753Z,1017.66
2016-08-21T23:09:38.746Z,1017.66
2016-08-21T23:09:48.754Z,1017.69
2016-08-21T23:09:58.741Z,1017.64
2016-08-21T23:10:08.741Z,1017.64
2016-08-21T23:10:18.729Z,1017.66
2016-08-21T23:10:28.724Z,1017.65
2016-08-21T23:10:38.720Z,1017.66
2016-08-21T23:10:48.715Z,1017.67
2016-08-21T23:10:58.711Z,1017.71
2016-08-21T23:11:08.715Z,1017.71
2016-08-21T23:11:18.700Z,1017.72
2016-08-21T23:11:28.695Z,1017.72
2016-08-21T23:11:38.693Z,1017.71
2016-08-21T23:11:48.686Z,1017.71
2016-08-21T23:11:58.679Z,1017.69
2016-08-21T23:12:08.674Z,1017.7
2016-08-21T23:12:18.670Z,1017.75
2016-08-21T23:12:28.665Z,1017.74
2016-08-21T23:12:38.662Z,1017.76
2016-08-21T23:12:48.655Z,1017.74
2016-08-21T23:12:58.659Z,1017.76
2016-08-21T23:13:08.648Z,1017.77
2016-08-21T23:13:18.648Z,1017.78
2016-08-21T23:13:28.637Z,1017.78
2016-08-21T23:13:38.632Z,1017.75
2016-08-21T23:13:48.631Z,1017.82
2016-08-21T23:13:58.624Z,1017.74
2016-08-21T23:14:08.620Z,1017.79
2016-08-21T23:14:18.615Z,1017.77
2016-08-21T23:14:28.610Z,1017.81
2016-08-21T23:14:38.605Z,1017.75
2016-08-21T23:14:48.599Z,1017.79
2016-08-21T23:14:58.594Z,1017.8
2016-08-21T23:15:08.588Z,1017.77
2016-08-21T23:15:18.583Z,1017.78
2016-08-21T23:15:28.580Z,1017.78
2016-08-21T23:15:38.575Z,1017.79
2016-08-21T23:15:48.572Z,1017.76
2016-08-21T23:15:58.565Z,1017.77
2016-08-21T23:16:08.560Z,1017.77
2016-08-21T23:16:18.554Z,1017.75
2016-08-21T23:16:28.552Z,1017.8
2016-08-21T23:16:38.548Z,1017.78
2016-08-21T23:16:48.541Z,1017.81
2016-08-21T23:16:58.540Z,1017.76
2016-08-21T23:17:08.533Z,1017.75
2016-08-21T23:17:18.528Z,1017.76
2016-08-21T23:17:28.521Z,1017.81
2016-08-21T23:17:38.518Z,1017.75
2016-08-21T23:17:48.512Z,1017.77
2016-08-21T23:17:58.508Z,1017.83
2016-08-21T23:18:08.505Z,1017.77
2016-08-21T23:18:18.496Z,1017.78
2016-08-21T23:18:28.493Z,1017.75
2016-08-21T23:18:38.489Z,1017.79
2016-08-21T23:18:48.484Z,1017.76
2016-08-21T23:18:58.481Z,1017.77
2016-08-21T23:19:08.474Z,1017.78
2016-08-21T23:19:18.471Z,1017.8
2016-08-21T23:19:28.463Z,1017.79
2016-08-21T23:19:38.460Z,1017.77
2016-08-21T23:19:48.454Z,1017.76
2016-08-21T23:19:58.454Z,1017.75
2016-08-21T23:20:08.448Z,1017.78
2016-08-21T23:20:18.440Z,1017.71
2016-08-21T23:20:28.435Z,1017.76
2016-08-21T23:20:38.433Z,1017.77
2016-08-21T23:20:48.427Z,1017.78
2016-08-21T23:20:58.422Z,1017.77
2016-08-21T23:21:08.423Z,1017.79
2016-08-21T23:21:18.412Z,1017.79
2016-08-21T23:21:29.136Z,1017.76
2016-08-21T23:21:38.402Z,1017.79
2016-08-21T23:21:48.397Z,1017.81
2016-08-21T23:21:58.394Z,1017.75
2016-08-21T23:22:08.388Z,1017.78
2016-08-21T23:22:18.382Z,1017.78
2016-08-21T23:22:28.384Z,1017.77
2016-08-21T23:22:38.374Z,1017.78
2016-08-21T23:22:48.368Z,1017.77
2016-08-21T23:22:58.364Z,1017.77
2016-08-21T23:23:08.359Z,1017.82
2016-08-21T23:23:18.355Z,1017.81
2016-08-21T23:23:28.350Z,1017.82
2016-08-21T23:23:38.346Z,1017.83
2016-08-21T23:23:48.342Z,1017.78
2016-08-21T23:23:58.335Z,1017.74
2016-08-21T23:24:08.330Z,1017.8
2016-08-21T23:24:18.326Z,1017.77
2016-08-21T23:24:28.322Z,1017.78
2016-08-21T23:24:38.316Z,1017.79
2016-08-21T23:24:48.313Z,1017.83
2016-08-21T23:24:58.307Z,1017.77
2016-08-21T23:25:08.303Z,1017.83
2016-08-21T23:25:18.295Z,1017.8
2016-08-21T23:25:28.293Z,1017.78
2016-08-21T23:25:38.286Z,1017.81
2016-08-21T23:25:48.283Z,1017.78
2016-08-21T23:25:58.279Z,1017.77
2016-08-21T23:26:08.288Z,1017.8
2016-08-21T23:26:18.268Z,1017.74
2016-08-21T23:26:28.266Z,1017.8
2016-08-21T23:26:38.257Z,1017.77
2016-08-21T23:26:48.981Z,1017.78
2016-08-21T23:26:58.248Z,1017.79
2016-08-21T23:27:08.243Z,1017.79
2016-08-21T23:27:18.241Z,1017.8
2016-08-21T23:27:28.235Z,1017.83
2016-08-21T23:27:38.230Z,1017.83
2016-08-21T23:27:48.225Z,1017.81
2016-08-21T23:27:58.218Z,1017.83
2016-08-21T23:28:08.223Z,1017.81
2016-08-21T23:28:18.214Z,1017.83
2016-08-21T23:28:28.204Z,1017.82
2016-08-21T23:28:38.200Z,1017.86
2016-08-21T23:28:48.196Z,1017.84
2016-08-21T23:28:58.191Z,1017.85
2016-08-21T23:29:08.187Z,1017.84
2016-08-21T23:29:18.182Z,1017.82
2016-08-21T23:29:28.176Z,1017.84
2016-08-21T23:29:38.171Z,1017.83
2016-08-21T23:29:48.168Z,1017.85
2016-08-21T23:29:58.164Z,1017.87
2016-08-21T23:30:08.157Z,1017.87
2016-08-21T23:30:18.154Z,1017.85
2016-08-21T23:30:28.148Z,1017.85
2016-08-21T23:30:38.145Z,1017.88
2016-08-21T23:30:48.138Z,1017.85
2016-08-21T23:30:58.134Z,1017.87
2016-08-21T23:31:08.132Z,1017.83
2016-08-21T23:31:18.125Z,1017.81
2016-08-21T23:31:28.117Z,1017.79
2016-08-21T23:31:38.114Z,1017.86
2016-08-21T23:31:48.112Z,1017.85
2016-08-21T23:31:58.106Z,1017.85
2016-08-21T23:32:08.100Z,1017.83
2016-08-21T23:32:18.107Z,1017.85
2016-08-21T23:32:28.090Z,1017.87
2016-08-21T23:32:38.087Z,1017.88
2016-08-21T23:32:48.080Z,1017.86
2016-08-21T23:32:58.076Z,1017.85
2016-08-21T23:33:08.071Z,1017.86
2016-08-21T23:33:18.066Z,1017.89
2016-08-21T23:33:28.065Z,1017.85
2016-08-21T23:33:38.055Z,1017.9
2016-08-21T23:33:48.052Z,1017.85
2016-08-21T23:33:58.049Z,1017.86
2016-08-21T23:34:08.042Z,1017.84
2016-08-21T23:34:18.052Z,1017.85
2016-08-21T23:34:28.035Z,1017.81
2016-08-21T23:34:38.029Z,1017.88
2016-08-21T23:34:48.025Z,1017.91
2016-08-21T23:34:58.019Z,1017.84
2016-08-21T23:35:08.769Z,1017.88
2016-08-21T23:35:18.011Z,1017.88
2016-08-21T23:35:28.007Z,1017.9
2016-08-21T23:35:38.005Z,1017.9
2016-08-21T23:35:47.997Z,1017.89
2016-08-21T23:35:57.990Z,1017.88
2016-08-21T23:36:07.986Z,1017.9
2016-08-21T23:36:17.980Z,1017.9
2016-08-21T23:36:27.975Z,1017.94
2016-08-21T23:36:37.972Z,1017.88
2016-08-21T23:36:47.965Z,1017.91
2016-08-21T23:36:57.963Z,1017.94
2016-08-21T23:37:07.958Z,1017.92
2016-08-21T23:37:17.953Z,1017.84
2016-08-21T23:37:27.948Z,1017.89
2016-08-21T23:37:37.956Z,1017.88
2016-08-21T23:37:47.936Z,1017.89
2016-08-21T23:37:57.933Z,1017.86
2016-08-21T23:38:07.935Z,1017.91